Time;durP1;ratioP1;P1;durP2;ratioP2;P2;SDS_P1;SDS_P2;PMS_P1;PMS_P2;Temp;Humidity;BMP_temperature;BMP_pressure;BME280_temperature;BME280_humidity;BME280_pressure;Samples;Min_cycle;Max_cycle;Signal;HPM_P1;HPM_P2
2023/10/04 00:01:38;;;;;;;8.15;2.10;;;;;;;;;;5060014;28;20040;-78
2023/10/04 00:04:06;;;;;;;11.45;2.08;;;;;;;;;;5059751;28;20412;-78
2023/10/04 00:06:32;;;;;;;8.23;2.08;;;;;;;;;;5076969;28;20083;-79
2023/10/04 00:08:59;;;;;;;11.90;2.20;;;;;;;;;;5076942;28;20048;-78
2023/10/04 00:11:26;;;;;;;6.95;1.80;;;;;;;;;;5077360;28;20083;-78
2023/10/04 00:13:52;;;;;;;7.50;1.60;;;;;;;;;;5095181;28;20052;-79
2023/10/04 00:16:19;;;;;;;8.70;1.92;;;;;;;;;;5043561;28;20040;-79
2023/10/04 00:18:45;;;;;;;7.85;1.60;;;;;;;;;;5060585;28;20036;-78
2023/10/04 00:21:11;;;;;;;5.95;1.42;;;;;;;;;;5077016;28;20043;-78
2023/10/04 00:23:38;;;;;;;5.90;1.33;;;;;;;;;;5059934;28;20480;-78
2023/10/04 00:26:07;;;;;;;8.20;1.70;;;;;;;;;;5059734;28;20139;-79
2023/10/04 00:28:33;;;;;;;6.32;1.35;;;;;;;;;;5059740;28;20063;-78
2023/10/04 00:30:59;;;;;;;5.82;1.10;;;;;;;;;;5076240;28;20051;-78
2023/10/04 00:33:29;;;;;;;9.23;1.33;;;;;;;;;;5076170;28;20467;-78
2023/10/04 00:35:55;;;;;;;5.55;0.90;;;;;;;;;;5094418;28;20044;-77
2023/10/04 00:38:22;;;;;;;3.75;0.85;;;;;;;;;;5075699;28;20050;-77
2023/10/04 00:40:50;;;;;;;9.40;1.48;;;;;;;;;;5093882;28;20062;-78
2023/10/04 00:43:19;;;;;;;8.68;1.20;;;;;;;;;;5076120;28;20123;-78
2023/10/04 00:45:47;;;;;;;5.03;1.42;;;;;;;;;;5076040;28;20380;-77
2023/10/04 00:48:17;;;;;;;5.88;1.45;;;;;;;;;;5093810;28;20545;-78
2023/10/04 00:50:44;;;;;;;5.43;1.05;;;;;;;;;;5093686;28;20488;-78
2023/10/04 00:53:14;;;;;;;3.85;1.05;;;;;;;;;;5075916;28;20052;-78
2023/10/04 00:55:43;;;;;;;9.90;0.98;;;;;;;;;;5075957;28;20048;-78
2023/10/04 00:58:17;;;;;;;3.85;0.55;;;;;;;;;;5075897;28;20055;-78
2023/10/04 01:00:45;;;;;;;8.13;0.70;;;;;;;;;;5059342;28;20048;-78
2023/10/04 01:03:14;;;;;;;5.07;0.65;;;;;;;;;;5093724;28;20385;-78
2023/10/04 01:05:47;;;;;;;4.65;0.70;;;;;;;;;;5077072;28;20388;-78
2023/10/04 01:08:17;;;;;;;4.55;0.80;;;;;;;;;;5080359;28;20047;-78
2023/10/04 01:10:44;;;;;;;7.47;1.33;;;;;;;;;;5063183;28;20054;-78
2023/10/04 01:13:11;;;;;;;7.00;0.70;;;;;;;;;;5097689;28;20048;-78
2023/10/04 01:15:39;;;;;;;5.40;0.90;;;;;;;;;;5080475;28;20460;-78
2023/10/04 01:18:07;;;;;;;5.38;1.10;;;;;;;;;;5080082;28;20047;-78
2023/10/04 01:20:38;;;;;;;6.32;0.93;;;;;;;;;;5097560;28;20055;-78
2023/10/04 01:23:06;;;;;;;6.13;1.00;;;;;;;;;;5097209;28;20056;-78
2023/10/04 01:25:35;;;;;;;4.20;0.90;;;;;;;;;;5079703;28;20044;-78
2023/10/04 01:28:47;;;;;;;6.85;1.42;;;;;;;;;;5062897;28;20070;-78
2023/10/04 01:30:55;;;;;;;8.35;1.10;;;;;;;;;;5065905;28;20492;-78
2023/10/04 01:33:22;;;;;;;4.07;1.20;;;;;;;;;;5079130;28;20051;-78
2023/10/04 01:35:55;;;;;;;7.22;1.15;;;;;;;;;;5080242;28;20067;-78
2023/10/04 01:38:25;;;;;;;9.35;1.00;;;;;;;;;;5079224;28;20127;-78
2023/10/04 01:40:52;;;;;;;7.68;0.82;;;;;;;;;;5080184;28;20089;-78
2023/10/04 01:43:19;;;;;;;5.07;0.93;;;;;;;;;;5080182;28;20123;-78
2023/10/04 01:45:50;;;;;;;5.07;0.90;;;;;;;;;;5079759;28;20086;-78
2023/10/04 01:48:17;;;;;;;5.85;1.10;;;;;;;;;;5096925;28;20436;-78
2023/10/04 01:50:44;;;;;;;4.40;1.25;;;;;;;;;;5078849;28;20051;-78
2023/10/04 01:53:11;;;;;;;7.60;1.60;;;;;;;;;;5079193;28;20044;-78
2023/10/04 01:55:37;;;;;;;10.98;1.52;;;;;;;;;;5078774;28;20081;-78
2023/10/04 01:58:06;;;;;;;8.38;1.55;;;;;;;;;;5079017;28;20048;-77
2023/10/04 02:00:33;;;;;;;5.82;1.38;;;;;;;;;;5063242;28;20048;-78
2023/10/04 02:03:01;;;;;;;7.18;1.60;;;;;;;;;;5062166;28;20056;-78
2023/10/04 02:06:01;;;;;;;5.53;1.30;;;;;;;;;;5078867;28;20101;-78
2023/10/04 02:08:20;;;;;;;8.40;1.40;;;;;;;;;;5073949;28;20071;-78
2023/10/04 02:10:46;;;;;;;6.43;1.40;;;;;;;;;;5079137;28;20044;-77
2023/10/04 02:13:15;;;;;;;6.60;1.52;;;;;;;;;;5078920;28;20383;-78
2023/10/04 02:15:42;;;;;;;8.18;1.40;;;;;;;;;;5078290;28;20076;-78
2023/10/04 02:18:08;;;;;;;7.85;1.35;;;;;;;;;;5078428;28;20126;-78
2023/10/04 02:20:35;;;;;;;7.07;1.13;;;;;;;;;;5062170;28;20055;-78
2023/10/04 02:23:03;;;;;;;5.20;1.02;;;;;;;;;;5078696;28;20433;-78
2023/10/04 02:25:29;;;;;;;8.32;1.20;;;;;;;;;;5078895;28;20083;-78
2023/10/04 02:28:01;;;;;;;6.15;1.08;;;;;;;;;;5075840;28;20102;-78
2023/10/04 02:30:28;;;;;;;8.90;1.55;;;;;;;;;;5058609;28;20049;-77
2023/10/04 02:32:54;;;;;;;9.45;1.60;;;;;;;;;;5041551;28;20059;-77
2023/10/04 02:35:27;;;;;;;7.55;1.17;;;;;;;;;;5058345;28;20047;-78
2023/10/04 02:37:54;;;;;;;9.07;1.35;;;;;;;;;;5075815;28;20127;-77
2023/10/04 02:40:22;;;;;;;6.35;1.30;;;;;;;;;;5042204;28;20040;-78
2023/10/04 02:42:48;;;;;;;8.55;1.60;;;;;;;;;;5058172;28;20052;-77
2023/10/04 02:45:18;;;;;;;7.85;1.20;;;;;;;;;;5058013;28;20190;-78
2023/10/04 02:47:48;;;;;;;5.68;0.65;;;;;;;;;;5076334;28;20397;-77
2023/10/04 02:50:18;;;;;;;11.07;1.63;;;;;;;;;;5058776;28;20453;-78
2023/10/04 02:52:45;;;;;;;6.90;1.05;;;;;;;;;;5075557;28;20053;-77
2023/10/04 02:55:15;;;;;;;10.57;1.27;;;;;;;;;;5041087;28;20082;-77
2023/10/04 02:57:45;;;;;;;8.27;1.50;;;;;;;;;;5076001;28;20048;-78
2023/10/04 03:00:16;;;;;;;8.15;1.40;;;;;;;;;;5040651;28;20048;-78
2023/10/04 03:02:43;;;;;;;6.47;1.10;;;;;;;;;;5058507;28;20059;-78
2023/10/04 03:05:09;;;;;;;7.50;1.20;;;;;;;;;;5075218;28;20504;-78
2023/10/04 03:07:37;;;;;;;7.75;1.33;;;;;;;;;;5076138;28;20501;-79
2023/10/04 03:10:04;;;;;;;11.77;1.52;;;;;;;;;;5057390;28;20420;-78
2023/10/04 03:12:30;;;;;;;8.73;1.73;;;;;;;;;;5040826;28;20048;-78
2023/10/04 03:14:57;;;;;;;7.35;1.38;;;;;;;;;;5057894;28;20194;-78
2023/10/04 03:17:23;;;;;;;8.32;1.13;;;;;;;;;;5057192;28;20048;-78
2023/10/04 03:19:49;;;;;;;8.95;1.45;;;;;;;;;;5074532;28;20044;-78
2023/10/04 03:22:22;;;;;;;11.45;1.35;;;;;;;;;;5057023;28;20183;-78
2023/10/04 03:24:49;;;;;;;6.10;1.00;;;;;;;;;;5057288;28;20052;-78
2023/10/04 03:27:16;;;;;;;6.35;1.42;;;;;;;;;;5074592;28;20485;-78
2023/10/04 03:29:43;;;;;;;7.10;1.20;;;;;;;;;;5074474;28;20064;-78
2023/10/04 03:32:09;;;;;;;6.18;1.30;;;;;;;;;;5057508;28;20053;-78
2023/10/04 03:34:35;;;;;;;8.40;1.30;;;;;;;;;;5057282;28;20443;-77
2023/10/04 03:37:14;;;;;;;6.50;1.55;;;;;;;;;;5057323;28;20041;-78
2023/10/04 03:39:40;;;;;;;9.32;1.65;;;;;;;;;;5056998;28;20040;-78
2023/10/04 03:42:06;;;;;;;9.30;1.30;;;;;;;;;;5057401;28;20037;-77
2023/10/04 03:44:32;;;;;;;13.50;1.63;;;;;;;;;;5040589;28;20135;-78
2023/10/04 03:46:58;;;;;;;7.45;1.23;;;;;;;;;;5074657;28;20094;-78
2023/10/04 03:49:25;;;;;;;8.88;1.42;;;;;;;;;;5075326;28;20040;-78
2023/10/04 03:51:53;;;;;;;8.13;1.77;;;;;;;;;;5057777;28;20428;-78
2023/10/04 03:54:19;;;;;;;3.58;1.10;;;;;;;;;;5074615;28;20048;-78
2023/10/04 03:56:45;;;;;;;4.78;1.60;;;;;;;;;;5056769;28;20502;-78
2023/10/04 03:59:12;;;;;;;7.07;1.17;;;;;;;;;;5057733;28;20044;-79
2023/10/04 04:01:38;;;;;;;9.55;2.35;;;;;;;;;;5039949;28;20055;-78
2023/10/04 04:04:05;;;;;;;9.95;1.45;;;;;;;;;;5056986;28;20076;-78
2023/10/04 04:06:31;;;;;;;8.65;1.70;;;;;;;;;;5074223;28;20045;-78
2023/10/04 04:09:00;;;;;;;6.00;1.48;;;;;;;;;;5056527;28;20040;-78
2023/10/04 04:11:27;;;;;;;11.38;1.58;;;;;;;;;;5074353;28;20048;-78
2023/10/04 04:13:56;;;;;;;6.53;1.35;;;;;;;;;;5040126;28;20484;-78
2023/10/04 04:16:22;;;;;;;4.85;1.42;;;;;;;;;;5040497;28;20110;-79
2023/10/04 04:18:54;;;;;;;8.38;1.63;;;;;;;;;;5056480;28;20080;-78
2023/10/04 04:21:20;;;;;;;8.32;1.63;;;;;;;;;;5056272;28;20055;-78
2023/10/04 04:23:46;;;;;;;9.68;1.75;;;;;;;;;;5056304;28;20044;-78
2023/10/04 04:26:13;;;;;;;7.53;1.42;;;;;;;;;;5039689;28;20050;-78
2023/10/04 04:28:39;;;;;;;8.15;1.42;;;;;;;;;;5064649;28;20103;-78
2023/10/04 04:31:09;;;;;;;9.02;1.60;;;;;;;;;;5076120;28;20552;-78
2023/10/04 04:33:37;;;;;;;14.82;1.90;;;;;;;;;;5076510;28;20048;-77
2023/10/04 04:36:10;;;;;;;5.72;1.38;;;;;;;;;;5076831;28;20048;-78
2023/10/04 04:38:40;;;;;;;7.47;1.45;;;;;;;;;;5076292;28;20048;-78
2023/10/04 04:41:12;;;;;;;10.68;1.67;;;;;;;;;;5060214;28;20047;-78
2023/10/04 04:43:38;;;;;;;6.82;1.77;;;;;;;;;;5076537;28;20134;-78
2023/10/04 04:46:12;;;;;;;9.10;2.00;;;;;;;;;;5059230;28;20052;-78
2023/10/04 04:48:39;;;;;;;7.87;1.50;;;;;;;;;;5076303;28;20549;-78
2023/10/04 04:53:35;;;;;;;7.88;1.50;;;;;;;;;;5076001;28;20083;-79
2023/10/04 04:56:01;;;;;;;7.80;1.73;;;;;;;;;;5076028;28;20044;-78
2023/10/04 04:58:28;;;;;;;10.27;2.10;;;;;;;;;;5059466;28;20052;-78
2023/10/04 05:00:56;;;;;;;10.88;1.58;;;;;;;;;;5059089;28;20499;-79
2023/10/04 05:03:24;;;;;;;10.85;2.33;;;;;;;;;;5076068;28;20056;-78
2023/10/04 05:05:50;;;;;;;14.93;2.30;;;;;;;;;;5043282;28;20060;-78
2023/10/04 05:08:22;;;;;;;9.32;2.00;;;;;;;;;;5075791;28;20052;-78
2023/10/04 05:10:52;;;;;;;13.75;2.05;;;;;;;;;;5076185;28;20040;-78
2023/10/04 05:13:18;;;;;;;10.02;1.70;;;;;;;;;;5075719;28;20051;-78
2023/10/04 05:15:49;;;;;;;8.00;2.08;;;;;;;;;;5076102;28;20052;-78
2023/10/04 05:18:15;;;;;;;12.20;1.60;;;;;;;;;;5075310;28;20048;-79
2023/10/04 05:20:45;;;;;;;11.32;2.50;;;;;;;;;;5059126;28;20059;-78
2023/10/04 05:23:11;;;;;;;10.00;1.80;;;;;;;;;;5075544;28;20051;-79
2023/10/04 05:25:38;;;;;;;9.20;2.63;;;;;;;;;;5075254;28;20127;-78
2023/10/04 05:28:11;;;;;;;9.25;2.28;;;;;;;;;;5075077;28;20056;-79
2023/10/04 05:30:38;;;;;;;7.43;2.00;;;;;;;;;;5075665;28;20476;-79
2023/10/04 05:33:06;;;;;;;12.90;2.50;;;;;;;;;;5075540;28;20044;-78
2023/10/04 05:35:33;;;;;;;8.63;2.22;;;;;;;;;;5058954;28;20075;-78
2023/10/04 05:38:01;;;;;;;6.07;2.00;;;;;;;;;;5093546;28;20123;-79
2023/10/04 05:40:29;;;;;;;9.65;2.28;;;;;;;;;;5059313;28;20144;-78
2023/10/04 05:42:56;;;;;;;12.75;2.50;;;;;;;;;;5076166;28;20106;-78
2023/10/04 05:45:23;;;;;;;9.48;2.40;;;;;;;;;;5075883;28;20519;-78
2023/10/04 05:47:50;;;;;;;8.55;2.47;;;;;;;;;;5093371;28;20518;-78
2023/10/04 05:50:23;;;;;;;9.95;2.38;;;;;;;;;;5075897;28;20059;-78
2023/10/04 05:52:50;;;;;;;9.23;2.47;;;;;;;;;;5078715;28;20040;-78
2023/10/04 05:55:20;;;;;;;12.30;2.55;;;;;;;;;;5097114;28;20048;-78
2023/10/04 05:57:47;;;;;;;10.65;2.72;;;;;;;;;;5062879;28;20491;-78
2023/10/04 06:00:37;;;;;;;7.90;2.22;;;;;;;;;;5062272;28;20058;-78
2023/10/04 06:03:06;;;;;;;10.48;2.85;;;;;;;;;;5078115;28;20056;-78
2023/10/04 06:05:34;;;;;;;10.23;2.83;;;;;;;;;;5079304;28;20105;-78
2023/10/04 06:08:05;;;;;;;11.20;2.13;;;;;;;;;;5079846;28;20048;-78
2023/10/04 06:10:31;;;;;;;8.25;1.95;;;;;;;;;;5079274;28;20056;-77
2023/10/04 06:12:57;;;;;;;9.82;2.42;;;;;;;;;;5079131;28;20052;-78
2023/10/04 06:15:26;;;;;;;10.93;2.33;;;;;;;;;;5078735;28;20063;-78
2023/10/04 06:17:52;;;;;;;7.30;2.08;;;;;;;;;;5078876;28;20131;-77
2023/10/04 06:20:32;;;;;;;5.85;1.90;;;;;;;;;;5078325;28;20036;-77
2023/10/04 06:22:59;;;;;;;11.10;2.05;;;;;;;;;;5079641;28;20048;-78
2023/10/04 06:25:26;;;;;;;11.50;2.28;;;;;;;;;;5078459;28;20493;-78
2023/10/04 06:27:53;;;;;;;9.02;1.80;;;;;;;;;;5076214;28;20092;-77
2023/10/04 06:30:23;;;;;;;8.73;2.10;;;;;;;;;;5058400;28;20057;-77
2023/10/04 06:32:59;;;;;;;11.73;2.05;;;;;;;;;;5059378;28;20052;-78
2023/10/04 06:35:26;;;;;;;10.07;2.55;;;;;;;;;;5059357;28;20133;-78
2023/10/04 06:37:54;;;;;;;9.20;2.25;;;;;;;;;;5058646;28;20048;-78
2023/10/04 06:40:21;;;;;;;7.63;1.85;;;;;;;;;;5076641;28;20046;-78
2023/10/04 06:42:48;;;;;;;6.90;2.00;;;;;;;;;;5041713;28;20048;-77
2023/10/04 06:45:24;;;;;;;8.13;1.98;;;;;;;;;;5075821;28;20117;-78
2023/10/04 06:47:53;;;;;;;9.50;2.75;;;;;;;;;;5042221;28;20135;-78
2023/10/04 06:50:20;;;;;;;10.95;2.25;;;;;;;;;;5075545;28;20044;-77
2023/10/04 06:52:50;;;;;;;11.52;2.42;;;;;;;;;;5058006;28;20097;-77
2023/10/04 06:55:20;;;;;;;12.63;2.40;;;;;;;;;;5076023;28;20092;-78
2023/10/04 06:57:47;;;;;;;10.13;2.00;;;;;;;;;;5041642;28;20071;-77
2023/10/04 07:00:15;;;;;;;11.38;2.10;;;;;;;;;;5057558;28;20094;-77
2023/10/04 07:02:45;;;;;;;8.05;2.40;;;;;;;;;;5057786;28;20105;-78
2023/10/04 07:05:19;;;;;;;10.02;2.30;;;;;;;;;;5057976;28;20048;-78
2023/10/04 07:07:49;;;;;;;9.20;2.58;;;;;;;;;;5057824;28;20047;-78
2023/10/04 07:10:15;;;;;;;10.82;2.35;;;;;;;;;;5058584;28;20135;-78
2023/10/04 07:12:45;;;;;;;8.25;2.17;;;;;;;;;;5041182;28;20074;-78
2023/10/04 07:15:13;;;;;;;9.57;1.90;;;;;;;;;;5057733;28;20052;-77
2023/10/04 07:17:40;;;;;;;12.23;2.10;;;;;;;;;;5057481;28;20493;-79
2023/10/04 07:20:07;;;;;;;9.15;2.17;;;;;;;;;;5058180;28;20045;-78
2023/10/04 07:22:33;;;;;;;10.23;2.20;;;;;;;;;;5058391;28;20092;-78
2023/10/04 07:25:01;;;;;;;11.80;3.13;;;;;;;;;;5075163;28;20397;-78
2023/10/04 07:27:27;;;;;;;13.20;1.80;;;;;;;;;;5057272;28;20382;-78
2023/10/04 07:29:53;;;;;;;8.88;1.55;;;;;;;;;;5076001;28;20067;-78
2023/10/04 07:32:20;;;;;;;13.23;2.63;;;;;;;;;;5077283;28;20047;-78
2023/10/04 07:34:47;;;;;;;8.80;2.15;;;;;;;;;;5077352;28;20559;-79
2023/10/04 07:37:13;;;;;;;14.25;2.72;;;;;;;;;;5061558;28;20432;-78
2023/10/04 07:39:39;;;;;;;8.50;2.33;;;;;;;;;;5077424;28;20087;-78
2023/10/04 07:42:05;;;;;;;10.38;2.70;;;;;;;;;;5076986;28;20487;-78
2023/10/04 07:44:32;;;;;;;8.88;2.47;;;;;;;;;;5060803;28;20058;-78
2023/10/04 07:47:01;;;;;;;10.60;2.67;;;;;;;;;;5061506;28;20079;-78
2023/10/04 07:49:29;;;;;;;11.77;2.72;;;;;;;;;;5077116;28;20097;-79
2023/10/04 07:51:56;;;;;;;10.73;2.95;;;;;;;;;;5077741;28;20079;-78
2023/10/04 07:54:22;;;;;;;12.85;2.47;;;;;;;;;;5077293;28;20052;-79
2023/10/04 07:56:49;;;;;;;12.57;2.38;;;;;;;;;;5060238;28;20054;-79
2023/10/04 07:59:15;;;;;;;9.68;2.88;;;;;;;;;;5060669;28;20093;-79
2023/10/04 08:01:41;;;;;;;14.02;3.10;;;;;;;;;;5077366;28;20048;-78
2023/10/04 08:04:07;;;;;;;11.98;2.88;;;;;;;;;;5077376;28;20468;-78
2023/10/04 08:06:38;;;;;;;9.98;2.97;;;;;;;;;;5061294;28;20051;-79
2023/10/04 08:09:05;;;;;;;15.88;3.38;;;;;;;;;;5077801;28;20087;-79
2023/10/04 08:11:34;;;;;;;9.27;2.22;;;;;;;;;;5077224;28;20093;-78
2023/10/04 08:14:07;;;;;;;10.25;2.65;;;;;;;;;;5076102;28;20543;-77
2023/10/04 08:16:33;;;;;;;7.32;2.47;;;;;;;;;;5077433;28;20055;-79
2023/10/04 08:19:01;;;;;;;10.25;2.72;;;;;;;;;;5060107;28;20055;-79
2023/10/04 08:21:28;;;;;;;12.25;3.00;;;;;;;;;;5060160;28;20048;-79
2023/10/04 08:23:55;;;;;;;8.77;2.35;;;;;;;;;;5077629;28;20094;-79
2023/10/04 08:26:22;;;;;;;11.07;3.22;;;;;;;;;;5060103;28;20044;-79
2023/10/04 08:28:49;;;;;;;14.02;3.42;;;;;;;;;;5059597;28;20405;-79
2023/10/04 08:31:16;;;;;;;14.88;3.30;;;;;;;;;;5077431;28;20097;-79
2023/10/04 08:33:45;;;;;;;10.35;2.92;;;;;;;;;;5059681;28;20052;-79
2023/10/04 08:36:18;;;;;;;10.57;2.67;;;;;;;;;;5077665;28;20040;-79
2023/10/04 08:38:45;;;;;;;11.70;2.97;;;;;;;;;;5076399;28;20044;-79
2023/10/04 08:41:12;;;;;;;8.35;2.58;;;;;;;;;;5076637;28;20054;-79
2023/10/04 08:43:38;;;;;;;11.48;3.28;;;;;;;;;;5076718;28;20079;-79
2023/10/04 08:46:07;;;;;;;12.02;2.65;;;;;;;;;;5059461;28;20048;-79
2023/10/04 08:48:34;;;;;;;10.60;3.05;;;;;;;;;;5076789;28;20472;-79
2023/10/04 08:51:16;;;;;;;9.52;2.70;;;;;;;;;;5044598;28;20052;-79
2023/10/04 08:53:45;;;;;;;7.80;2.80;;;;;;;;;;5059556;28;20099;-79
2023/10/04 08:56:14;;;;;;;11.23;2.97;;;;;;;;;;5076696;28;20488;-79
2023/10/04 08:58:40;;;;;;;15.50;3.80;;;;;;;;;;5077343;28;20047;-79
2023/10/04 09:01:07;;;;;;;8.95;2.60;;;;;;;;;;5060027;28;20094;-79
2023/10/04 09:03:33;;;;;;;10.55;2.55;;;;;;;;;;5076864;28;20052;-80
2023/10/04 09:05:59;;;;;;;12.00;3.47;;;;;;;;;;5059670;28;20054;-79
2023/10/04 09:08:26;;;;;;;10.73;3.25;;;;;;;;;;5076315;28;20047;-79
2023/10/04 09:10:56;;;;;;;8.70;2.75;;;;;;;;;;5059704;28;20048;-79
2023/10/04 09:13:25;;;;;;;11.82;3.13;;;;;;;;;;5059798;28;20373;-79
2023/10/04 09:15:51;;;;;;;10.52;3.13;;;;;;;;;;5076604;28;20133;-79
2023/10/04 09:18:27;;;;;;;14.95;3.10;;;;;;;;;;5043153;28;20052;-79
2023/10/04 09:20:53;;;;;;;8.95;2.70;;;;;;;;;;5077014;28;20048;-79
2023/10/04 09:23:22;;;;;;;7.82;2.40;;;;;;;;;;5076746;28;20369;-79
2023/10/04 09:25:54;;;;;;;12.77;3.05;;;;;;;;;;5076207;28;20044;-79
2023/10/04 09:28:20;;;;;;;10.65;2.88;;;;;;;;;;5078133;28;20070;-79
2023/10/04 09:30:46;;;;;;;9.48;2.67;;;;;;;;;;5060020;28;20071;-80
2023/10/04 09:33:32;;;;;;;9.55;2.40;;;;;;;;;;5060731;28;20048;-79
2023/10/04 09:35:58;;;;;;;11.30;2.80;;;;;;;;;;5060122;28;20056;-79
2023/10/04 09:38:29;;;;;;;9.73;2.55;;;;;;;;;;5059904;28;20461;-80
2023/10/04 09:40:57;;;;;;;12.73;3.05;;;;;;;;;;5028380;28;20044;-79
2023/10/04 09:43:39;;;;;;;7.18;2.85;;;;;;;;;;5043734;28;20101;-79
2023/10/04 09:46:07;;;;;;;8.35;3.08;;;;;;;;;;5060201;28;20131;-79
2023/10/04 09:48:33;;;;;;;11.60;2.58;;;;;;;;;;5060000;28;20507;-79
2023/10/04 09:51:06;;;;;;;6.82;2.53;;;;;;;;;;5059944;28;20051;-79
2023/10/04 09:53:33;;;;;;;7.00;2.85;;;;;;;;;;5042922;28;20051;-79
2023/10/04 09:56:01;;;;;;;14.52;3.08;;;;;;;;;;5043867;28;20411;-79
2023/10/04 09:58:29;;;;;;;13.00;2.72;;;;;;;;;;5059285;28;20539;-79
2023/10/04 10:00:56;;;;;;;11.20;3.40;;;;;;;;;;5059763;28;20041;-79
2023/10/04 10:03:25;;;;;;;10.45;2.40;;;;;;;;;;5043380;28;20048;-79
2023/10/04 10:05:53;;;;;;;11.13;2.40;;;;;;;;;;5059047;28;20048;-79
2023/10/04 10:08:20;;;;;;;10.27;3.10;;;;;;;;;;5058862;28;20044;-78
2023/10/04 10:10:47;;;;;;;9.45;3.00;;;;;;;;;;5059225;28;20105;-79
2023/10/04 10:13:13;;;;;;;11.20;2.97;;;;;;;;;;5058964;28;20279;-79
2023/10/04 10:15:39;;;;;;;11.20;3.03;;;;;;;;;;5043213;28;20393;-79
2023/10/04 10:18:07;;;;;;;9.30;3.20;;;;;;;;;;5042653;28;20052;-80
2023/10/04 10:20:33;;;;;;;10.15;3.33;;;;;;;;;;5041872;28;20040;-79
2023/10/04 10:22:59;;;;;;;10.77;3.25;;;;;;;;;;5076544;28;20135;-79
2023/10/04 10:25:33;;;;;;;10.98;3.15;;;;;;;;;;5058225;28;20493;-79
2023/10/04 10:28:01;;;;;;;11.10;3.10;;;;;;;;;;5060056;28;20131;-79
2023/10/04 10:30:31;;;;;;;7.93;2.80;;;;;;;;;;5077500;28;20051;-78
2023/10/04 10:32:58;;;;;;;9.52;2.75;;;;;;;;;;5078689;28;20117;-80
2023/10/04 10:35:43;;;;;;;12.38;2.95;;;;;;;;;;5078708;28;20101;-80
2023/10/04 10:38:28;;;;;;;10.82;3.28;;;;;;;;;;5078394;28;20052;-79
2023/10/04 10:40:54;;;;;;;9.48;2.53;;;;;;;;;;5078699;28;20044;-79
2023/10/04 10:43:20;;;;;;;12.75;3.33;;;;;;;;;;5045272;28;20056;-79
2023/10/04 10:45:46;;;;;;;9.23;2.78;;;;;;;;;;5078660;28;20091;-79
2023/10/04 10:48:13;;;;;;;7.03;2.58;;;;;;;;;;5078885;28;20048;-79
2023/10/04 10:50:41;;;;;;;12.05;3.55;;;;;;;;;;5078394;28;20040;-79
2023/10/04 10:53:10;;;;;;;11.15;3.88;;;;;;;;;;5078205;28;20040;-79
2023/10/04 10:55:37;;;;;;;12.85;3.55;;;;;;;;;;5079314;28;20040;-79
2023/10/04 10:58:04;;;;;;;11.85;3.55;;;;;;;;;;5078296;28;20056;-78
2023/10/04 11:00:33;;;;;;;8.45;2.83;;;;;;;;;;5078230;28;20051;-79
2023/10/04 11:03:00;;;;;;;11.48;3.17;;;;;;;;;;5078486;28;20469;-78
2023/10/04 11:05:26;;;;;;;11.60;3.42;;;;;;;;;;5078199;28;20050;-79
2023/10/04 11:07:54;;;;;;;10.15;3.33;;;;;;;;;;5045032;28;20052;-79
2023/10/04 11:10:23;;;;;;;11.32;3.45;;;;;;;;;;5061433;28;20044;-79
2023/10/04 11:12:51;;;;;;;13.48;3.78;;;;;;;;;;5077617;28;20480;-79
2023/10/04 11:15:20;;;;;;;10.70;3.30;;;;;;;;;;5078615;28;20048;-79
2023/10/04 11:17:47;;;;;;;11.00;3.20;;;;;;;;;;5061225;28;20052;-78
2023/10/04 11:20:17;;;;;;;8.23;2.97;;;;;;;;;;5060954;28;20044;-79
2023/10/04 11:22:46;;;;;;;12.43;4.35;;;;;;;;;;5077881;28;20052;-80
2023/10/04 11:25:13;;;;;;;9.65;4.28;;;;;;;;;;5077630;28;20039;-79
2023/10/04 11:27:41;;;;;;;8.82;3.67;;;;;;;;;;5077876;28;20040;-79
2023/10/04 11:30:10;;;;;;;12.93;3.70;;;;;;;;;;5077431;28;20067;-79
2023/10/04 11:32:38;;;;;;;12.85;3.90;;;;;;;;;;5078395;28;20079;-79
2023/10/04 11:35:08;;;;;;;13.50;4.05;;;;;;;;;;5077065;28;20059;-79
2023/10/04 11:37:43;;;;;;;8.68;3.65;;;;;;;;;;5078370;28;20122;-79
2023/10/04 11:40:13;;;;;;;9.82;3.72;;;;;;;;;;5078198;28;20097;-78
2023/10/04 11:42:45;;;;;;;9.98;3.88;;;;;;;;;;5060753;28;20083;-78
2023/10/04 11:45:20;;;;;;;13.77;4.00;;;;;;;;;;5061278;28;20555;-79
2023/10/04 11:47:59;;;;;;;9.50;3.80;;;;;;;;;;5077379;28;20047;-78
2023/10/04 11:50:26;;;;;;;11.30;3.63;;;;;;;;;;5076635;28;20048;-79
2023/10/04 11:52:56;;;;;;;12.57;4.07;;;;;;;;;;5077461;28;20110;-79
2023/10/04 11:55:28;;;;;;;9.15;3.33;;;;;;;;;;5078081;28;20044;-79
2023/10/04 11:58:04;;;;;;;9.93;3.97;;;;;;;;;;5094854;28;20056;-79
2023/10/04 12:00:30;;;;;;;11.60;3.78;;;;;;;;;;5076686;28;20044;-78
2023/10/04 12:02:56;;;;;;;10.55;3.47;;;;;;;;;;5077188;28;20484;-79
2023/10/04 12:05:22;;;;;;;12.48;4.22;;;;;;;;;;5061108;28;20043;-79
2023/10/04 12:07:48;;;;;;;13.32;3.72;;;;;;;;;;5077008;28;20043;-78
2023/10/04 12:10:15;;;;;;;9.50;3.75;;;;;;;;;;5076614;28;20048;-78
2023/10/04 12:12:42;;;;;;;12.02;3.70;;;;;;;;;;5043488;28;20361;-79
2023/10/04 12:15:08;;;;;;;13.13;4.00;;;;;;;;;;5076930;28;20048;-78
2023/10/04 12:17:35;;;;;;;11.98;3.65;;;;;;;;;;5076741;28;20044;-79
2023/10/04 12:20:04;;;;;;;13.52;3.78;;;;;;;;;;5094313;28;20083;-78
2023/10/04 12:22:30;;;;;;;10.05;3.45;;;;;;;;;;5060364;28;20039;-78
2023/10/04 12:24:59;;;;;;;8.65;3.08;;;;;;;;;;5076012;28;20123;-78
2023/10/04 12:27:25;;;;;;;14.05;3.13;;;;;;;;;;5077128;28;20052;-79
2023/10/04 12:29:51;;;;;;;11.20;3.25;;;;;;;;;;5075820;28;20055;-78
2023/10/04 12:32:19;;;;;;;11.68;3.75;;;;;;;;;;5060055;28;20044;-78
2023/10/04 12:34:45;;;;;;;14.60;3.08;;;;;;;;;;5076103;28;20152;-78
2023/10/04 12:37:12;;;;;;;8.82;3.65;;;;;;;;;;5060552;28;20052;-78
2023/10/04 12:39:38;;;;;;;13.40;3.35;;;;;;;;;;5076129;28;20040;-78
2023/10/04 12:42:04;;;;;;;10.10;3.63;;;;;;;;;;5059744;28;20055;-78
2023/10/04 12:44:31;;;;;;;13.13;3.83;;;;;;;;;;5059916;28;20459;-78
2023/10/04 12:46:57;;;;;;;10.90;3.05;;;;;;;;;;5077120;28;20052;-78
2023/10/04 12:49:23;;;;;;;11.75;3.10;;;;;;;;;;5059273;28;20047;-78
2023/10/04 12:51:50;;;;;;;8.70;2.92;;;;;;;;;;5060615;28;20040;-79
2023/10/04 12:54:16;;;;;;;9.80;3.50;;;;;;;;;;5059597;28;20058;-78
2023/10/04 12:56:46;;;;;;;9.10;2.40;;;;;;;;;;5059855;28;20056;-79
2023/10/04 12:59:12;;;;;;;9.80;3.13;;;;;;;;;;5075999;28;20453;-79
2023/10/04 13:01:38;;;;;;;10.10;3.35;;;;;;;;;;5078991;28;20044;-78
2023/10/04 13:04:04;;;;;;;10.68;3.08;;;;;;;;;;5063532;28;20487;-78
2023/10/04 13:06:31;;;;;;;11.23;3.70;;;;;;;;;;5080181;28;20048;-79
2023/10/04 13:08:57;;;;;;;8.68;3.10;;;;;;;;;;5080729;28;20055;-77
2023/10/04 13:11:24;;;;;;;10.32;3.10;;;;;;;;;;5063504;28;20093;-78
2023/10/04 13:13:51;;;;;;;11.25;3.40;;;;;;;;;;5079737;28;20052;-78
2023/10/04 13:16:17;;;;;;;11.32;3.05;;;;;;;;;;5079992;28;20134;-78
2023/10/04 13:18:44;;;;;;;8.98;2.55;;;;;;;;;;5063290;28;20052;-78
2023/10/04 13:21:12;;;;;;;10.50;3.03;;;;;;;;;;5080574;28;20419;-78
2023/10/04 13:23:38;;;;;;;7.80;2.90;;;;;;;;;;5080242;28;20479;-78
2023/10/04 13:26:05;;;;;;;11.52;3.00;;;;;;;;;;5063193;28;20044;-78
2023/10/04 13:28:32;;;;;;;11.07;3.28;;;;;;;;;;5062192;28;20047;-78
2023/10/04 13:30:58;;;;;;;8.32;2.80;;;;;;;;;;5061034;28;20082;-78
2023/10/04 13:33:26;;;;;;;10.05;3.30;;;;;;;;;;5043847;28;20044;-78
2023/10/04 13:35:52;;;;;;;11.52;3.30;;;;;;;;;;5059646;28;20053;-78
2023/10/04 13:38:19;;;;;;;10.27;2.78;;;;;;;;;;5059578;28;20052;-78
2023/10/04 13:40:49;;;;;;;8.57;2.33;;;;;;;;;;5042689;28;20040;-78
2023/10/04 13:43:16;;;;;;;7.95;2.60;;;;;;;;;;5059405;28;20131;-78
2023/10/04 13:45:45;;;;;;;10.43;2.55;;;;;;;;;;5060071;28;20048;-78
2023/10/04 13:48:11;;;;;;;9.95;3.03;;;;;;;;;;5059463;28;20393;-78
2023/10/04 13:50:38;;;;;;;8.82;2.58;;;;;;;;;;5059279;28;20044;-78
2023/10/04 13:53:10;;;;;;;11.60;2.95;;;;;;;;;;5058991;28;20119;-78
2023/10/04 13:55:37;;;;;;;9.43;2.42;;;;;;;;;;5059234;28;20078;-78
2023/10/04 13:58:04;;;;;;;10.90;2.90;;;;;;;;;;5077051;28;20089;-79
2023/10/04 14:00:36;;;;;;;10.77;2.90;;;;;;;;;;5042473;28;20045;-78
2023/10/04 14:03:02;;;;;;;8.93;3.00;;;;;;;;;;5059942;28;20053;-78
2023/10/04 14:05:29;;;;;;;8.75;3.45;;;;;;;;;;5059296;28;20052;-78
2023/10/04 14:07:55;;;;;;;13.32;3.00;;;;;;;;;;5026148;28;20060;-79
2023/10/04 14:10:23;;;;;;;11.65;3.72;;;;;;;;;;5058862;28;20131;-78
2023/10/04 14:12:52;;;;;;;12.35;3.83;;;;;;;;;;5058176;28;20048;-77
2023/10/04 14:15:19;;;;;;;9.45;3.15;;;;;;;;;;5058842;28;20048;-78
2023/10/04 14:17:45;;;;;;;12.25;3.33;;;;;;;;;;5058662;28;20044;-79
2023/10/04 14:20:14;;;;;;;11.10;3.47;;;;;;;;;;5058609;28;20041;-78
2023/10/04 14:22:41;;;;;;;13.80;4.25;;;;;;;;;;5026624;28;20495;-77
2023/10/04 14:25:09;;;;;;;9.18;3.55;;;;;;;;;;5041694;28;20515;-78
2023/10/04 14:27:35;;;;;;;10.35;3.75;;;;;;;;;;5041715;28;20144;-78
2023/10/04 14:30:03;;;;;;;9.60;4.53;;;;;;;;;;5071288;28;20133;-80
2023/10/04 14:32:30;;;;;;;9.85;3.30;;;;;;;;;;5062260;28;20101;-78
2023/10/04 14:34:56;;;;;;;13.02;3.70;;;;;;;;;;5079149;28;20127;-81
2023/10/04 14:37:22;;;;;;;9.80;3.65;;;;;;;;;;5079021;28;20059;-78
2023/10/04 14:39:50;;;;;;;11.38;3.80;;;;;;;;;;5078137;28;20048;-78
2023/10/04 14:42:16;;;;;;;10.77;3.60;;;;;;;;;;5061528;28;20059;-78
2023/10/04 14:44:43;;;;;;;11.82;3.90;;;;;;;;;;5061745;28;20050;-78
2023/10/04 14:47:09;;;;;;;12.07;4.05;;;;;;;;;;5061772;28;20507;-78